sensor_id;sensor_type;location;lat;lon;timestamp;temperature;humidity
55777;DHT22;54079;44.540;18.784;2023-08-06T00:00:19;21.50;99.90
55777;DHT22;54079;44.540;18.784;2023-08-06T00:02:45;21.50;99.90
55777;DHT22;54079;44.540;18.784;2023-08-06T00:05:11;21.50;99.90
55777;DHT22;54079;44.540;18.784;2023-08-06T00:07:37;21.50;99.90
55777;DHT22;54079;44.540;18.784;2023-08-06T00:10:03;21.50;99.90
55777;DHT22;54079;44.540;18.784;2023-08-06T00:12:29;21.60;99.90
55777;DHT22;54079;44.540;18.784;2023-08-06T00:14:55;21.60;99.90
55777;DHT22;54079;44.540;18.784;2023-08-06T00:17:21;21.50;99.90
55777;DHT22;54079;44.540;18.784;2023-08-06T00:19:47;21.60;99.90
55777;DHT22;54079;44.540;18.784;2023-08-06T00:22:13;21.70;99.90
55777;DHT22;54079;44.540;18.784;2023-08-06T00:24:39;21.70;99.90
55777;DHT22;54079;44.540;18.784;2023-08-06T00:27:05;21.70;99.90
55777;DHT22;54079;44.540;18.784;2023-08-06T00:29:31;21.80;99.90
55777;DHT22;54079;44.540;18.784;2023-08-06T00:31:57;21.90;99.90
55777;DHT22;54079;44.540;18.784;2023-08-06T00:34:23;21.80;99.90
55777;DHT22;54079;44.540;18.784;2023-08-06T00:36:49;21.80;99.90
55777;DHT22;54079;44.540;18.784;2023-08-06T00:39:15;21.70;99.90
55777;DHT22;54079;44.540;18.784;2023-08-06T00:41:40;21.70;99.90
55777;DHT22;54079;44.540;18.784;2023-08-06T00:44:06;21.60;99.90
55777;DHT22;54079;44.540;18.784;2023-08-06T00:46:33;21.60;99.90
55777;DHT22;54079;44.540;18.784;2023-08-06T00:49:00;21.60;99.90
55777;DHT22;54079;44.540;18.784;2023-08-06T00:51:26;21.70;99.90
55777;DHT22;54079;44.540;18.784;2023-08-06T00:53:53;21.70;99.90
55777;DHT22;54079;44.540;18.784;2023-08-06T00:56:19;21.60;99.90
55777;DHT22;54079;44.540;18.784;2023-08-06T00:58:45;21.50;99.90
55777;DHT22;54079;44.540;18.784;2023-08-06T01:01:12;21.50;99.90
55777;DHT22;54079;44.540;18.784;2023-08-06T01:03:38;21.40;99.90
55777;DHT22;54079;44.540;18.784;2023-08-06T01:06:04;21.30;99.90
55777;DHT22;54079;44.540;18.784;2023-08-06T01:11:26;21.40;99.90
55777;DHT22;54079;44.540;18.784;2023-08-06T01:14:06;21.50;99.90
55777;DHT22;54079;44.540;18.784;2023-08-06T01:16:33;21.50;99.90
55777;DHT22;54079;44.540;18.784;2023-08-06T01:19:00;21.60;99.90
55777;DHT22;54079;44.540;18.784;2023-08-06T01:21:26;21.70;99.90
55777;DHT22;54079;44.540;18.784;2023-08-06T01:23:52;21.70;99.90
55777;DHT22;54079;44.540;18.784;2023-08-06T01:29:00;21.60;99.90
55777;DHT22;54079;44.540;18.784;2023-08-06T01:31:34;21.50;99.90
55777;DHT22;54079;44.540;18.784;2023-08-06T01:34:03;21.40;99.90
55777;DHT22;54079;44.540;18.784;2023-08-06T01:36:30;21.50;99.90
55777;DHT22;54079;44.540;18.784;2023-08-06T01:39:00;21.60;99.90
55777;DHT22;54079;44.540;18.784;2023-08-06T01:41:26;21.70;99.90
55777;DHT22;54079;44.540;18.784;2023-08-06T01:43:52;21.70;99.90
55777;DHT22;54079;44.540;18.784;2023-08-06T01:46:18;21.70;99.90
55777;DHT22;54079;44.540;18.784;2023-08-06T01:48:44;21.60;99.90
55777;DHT22;54079;44.540;18.784;2023-08-06T01:51:09;21.70;99.90
55777;DHT22;54079;44.540;18.784;2023-08-06T01:53:35;21.70;99.90
55777;DHT22;54079;44.540;18.784;2023-08-06T01:56:01;21.70;99.90
55777;DHT22;54079;44.540;18.784;2023-08-06T01:58:27;21.80;99.90
55777;DHT22;54079;44.540;18.784;2023-08-06T02:00:53;21.90;99.90
55777;DHT22;54079;44.540;18.784;2023-08-06T02:03:19;21.90;99.90
55777;DHT22;54079;44.540;18.784;2023-08-06T02:05:45;21.80;99.90
55777;DHT22;54079;44.540;18.784;2023-08-06T02:08:11;21.70;99.90
55777;DHT22;54079;44.540;18.784;2023-08-06T02:10:37;21.70;99.90
55777;DHT22;54079;44.540;18.784;2023-08-06T02:13:03;21.70;99.90
55777;DHT22;54079;44.540;18.784;2023-08-06T02:15:29;21.70;99.90
55777;DHT22;54079;44.540;18.784;2023-08-06T02:17:55;21.60;99.90
55777;DHT22;54079;44.540;18.784;2023-08-06T02:20:21;21.50;99.90
55777;DHT22;54079;44.540;18.784;2023-08-06T02:22:46;21.40;99.90
55777;DHT22;54079;44.540;18.784;2023-08-06T02:25:12;21.50;99.90
55777;DHT22;54079;44.540;18.784;2023-08-06T02:27:38;21.40;99.90
55777;DHT22;54079;44.540;18.784;2023-08-06T02:30:05;21.50;99.90
55777;DHT22;54079;44.540;18.784;2023-08-06T02:32:31;21.50;99.90
55777;DHT22;54079;44.540;18.784;2023-08-06T02:34:58;21.50;99.90
55777;DHT22;54079;44.540;18.784;2023-08-06T02:37:23;21.30;99.90
55777;DHT22;54079;44.540;18.784;2023-08-06T02:39:50;21.30;99.90
55777;DHT22;54079;44.540;18.784;2023-08-06T02:42:15;21.20;99.90
55777;DHT22;54079;44.540;18.784;2023-08-06T02:44:41;21.20;99.90
55777;DHT22;54079;44.540;18.784;2023-08-06T02:47:07;21.10;99.90
55777;DHT22;54079;44.540;18.784;2023-08-06T02:49:33;21.20;99.90
55777;DHT22;54079;44.540;18.784;2023-08-06T02:51:59;21.10;99.90
55777;DHT22;54079;44.540;18.784;2023-08-06T02:54:25;21.00;99.90
55777;DHT22;54079;44.540;18.784;2023-08-06T02:56:51;21.10;99.90
55777;DHT22;54079;44.540;18.784;2023-08-06T02:59:17;21.20;99.90
55777;DHT22;54079;44.540;18.784;2023-08-06T03:01:43;21.20;99.90
55777;DHT22;54079;44.540;18.784;2023-08-06T03:04:08;21.30;99.90
55777;DHT22;54079;44.540;18.784;2023-08-06T03:06:34;21.20;99.90
55777;DHT22;54079;44.540;18.784;2023-08-06T03:09:00;21.20;99.90
55777;DHT22;54079;44.540;18.784;2023-08-06T03:11:26;21.10;99.90
55777;DHT22;54079;44.540;18.784;2023-08-06T03:13:52;21.10;99.90
55777;DHT22;54079;44.540;18.784;2023-08-06T03:16:18;21.10;99.90
55777;DHT22;54079;44.540;18.784;2023-08-06T03:18:44;21.00;99.90
55777;DHT22;54079;44.540;18.784;2023-08-06T03:21:10;21.00;99.90
55777;DHT22;54079;44.540;18.784;2023-08-06T03:23:36;21.00;99.90
55777;DHT22;54079;44.540;18.784;2023-08-06T03:26:02;21.00;99.90
55777;DHT22;54079;44.540;18.784;2023-08-06T03:28:28;21.00;99.90
55777;DHT22;54079;44.540;18.784;2023-08-06T03:31:01;21.10;99.90
55777;DHT22;54079;44.540;18.784;2023-08-06T03:33:28;21.10;99.90
55777;DHT22;54079;44.540;18.784;2023-08-06T03:35:53;21.20;99.90
55777;DHT22;54079;44.540;18.784;2023-08-06T03:38:19;21.20;99.90
55777;DHT22;54079;44.540;18.784;2023-08-06T03:40:46;21.20;99.90
55777;DHT22;54079;44.540;18.784;2023-08-06T03:43:12;21.20;99.90
55777;DHT22;54079;44.540;18.784;2023-08-06T03:45:38;21.00;99.90
55777;DHT22;54079;44.540;18.784;2023-08-06T03:48:05;21.10;99.90
55777;DHT22;54079;44.540;18.784;2023-08-06T03:50:31;21.20;99.90
55777;DHT22;54079;44.540;18.784;2023-08-06T03:52:57;21.10;99.90
55777;DHT22;54079;44.540;18.784;2023-08-06T03:55:23;21.20;99.90
55777;DHT22;54079;44.540;18.784;2023-08-06T03:57:49;21.10;99.90
55777;DHT22;54079;44.540;18.784;2023-08-06T04:00:15;21.20;99.90
55777;DHT22;54079;44.540;18.784;2023-08-06T04:02:41;21.20;99.90
55777;DHT22;54079;44.540;18.784;2023-08-06T04:05:07;21.20;99.90
55777;DHT22;54079;44.540;18.784;2023-08-06T04:07:33;21.20;99.90
55777;DHT22;54079;44.540;18.784;2023-08-06T04:10:01;21.10;99.90
55777;DHT22;54079;44.540;18.784;2023-08-06T04:12:27;21.10;99.70
55777;DHT22;54079;44.540;18.784;2023-08-06T04:14:54;21.20;99.60
55777;DHT22;54079;44.540;18.784;2023-08-06T04:17:23;21.00;99.50
55777;DHT22;54079;44.540;18.784;2023-08-06T04:19:53;21.10;99.90
55777;DHT22;54079;44.540;18.784;2023-08-06T04:22:20;21.20;99.50
55777;DHT22;54079;44.540;18.784;2023-08-06T04:24:47;21.20;98.80
55777;DHT22;54079;44.540;18.784;2023-08-06T04:27:14;21.30;98.40
55777;DHT22;54079;44.540;18.784;2023-08-06T04:29:40;21.40;98.20
55777;DHT22;54079;44.540;18.784;2023-08-06T04:32:08;21.30;97.80
55777;DHT22;54079;44.540;18.784;2023-08-06T04:34:35;21.40;98.10
55777;DHT22;54079;44.540;18.784;2023-08-06T04:37:02;21.30;97.00
55777;DHT22;54079;44.540;18.784;2023-08-06T04:39:28;21.50;97.20
55777;DHT22;54079;44.540;18.784;2023-08-06T04:41:55;21.60;96.50
55777;DHT22;54079;44.540;18.784;2023-08-06T04:44:22;21.70;96.30
55777;DHT22;54079;44.540;18.784;2023-08-06T04:46:47;21.80;95.50
55777;DHT22;54079;44.540;18.784;2023-08-06T04:49:13;21.90;95.50
55777;DHT22;54079;44.540;18.784;2023-08-06T04:51:39;21.80;95.20
55777;DHT22;54079;44.540;18.784;2023-08-06T04:54:05;22.00;95.10
55777;DHT22;54079;44.540;18.784;2023-08-06T04:56:31;22.00;94.80
55777;DHT22;54079;44.540;18.784;2023-08-06T04:58:58;21.80;94.50
55777;DHT22;54079;44.540;18.784;2023-08-06T05:01:24;22.00;94.00
55777;DHT22;54079;44.540;18.784;2023-08-06T05:03:50;22.00;94.20
55777;DHT22;54079;44.540;18.784;2023-08-06T05:06:16;21.80;93.90
55777;DHT22;54079;44.540;18.784;2023-08-06T05:08:42;21.80;94.00
55777;DHT22;54079;44.540;18.784;2023-08-06T05:11:09;21.60;93.50
55777;DHT22;54079;44.540;18.784;2023-08-06T05:13:35;21.80;93.60
55777;DHT22;54079;44.540;18.784;2023-08-06T05:16:01;21.70;93.20
55777;DHT22;54079;44.540;18.784;2023-08-06T05:18:27;21.60;93.50
55777;DHT22;54079;44.540;18.784;2023-08-06T05:20:53;21.60;92.90
55777;DHT22;54079;44.540;18.784;2023-08-06T05:23:19;21.50;93.40
55777;DHT22;54079;44.540;18.784;2023-08-06T05:25:45;21.60;92.70
55777;DHT22;54079;44.540;18.784;2023-08-06T05:28:11;21.80;92.80
55777;DHT22;54079;44.540;18.784;2023-08-06T05:30:41;22.00;92.30
55777;DHT22;54079;44.540;18.784;2023-08-06T05:33:07;22.10;92.20
55777;DHT22;54079;44.540;18.784;2023-08-06T05:35:33;21.90;92.50
55777;DHT22;54079;44.540;18.784;2023-08-06T05:37:59;21.40;92.70
55777;DHT22;54079;44.540;18.784;2023-08-06T05:40:25;21.30;92.90
55777;DHT22;54079;44.540;18.784;2023-08-06T05:42:54;21.40;92.90
55777;DHT22;54079;44.540;18.784;2023-08-06T05:45:20;21.70;92.90
55777;DHT22;54079;44.540;18.784;2023-08-06T05:47:48;22.30;92.30
55777;DHT22;54079;44.540;18.784;2023-08-06T05:50:14;22.40;91.60
55777;DHT22;54079;44.540;18.784;2023-08-06T05:52:40;22.30;91.60
55777;DHT22;54079;44.540;18.784;2023-08-06T05:55:06;22.20;91.10
55777;DHT22;54079;44.540;18.784;2023-08-06T05:57:32;22.20;91.30
55777;DHT22;54079;44.540;18.784;2023-08-06T05:59:58;22.10;91.30
55777;DHT22;54079;44.540;18.784;2023-08-06T06:02:24;22.40;91.20
55777;DHT22;54079;44.540;18.784;2023-08-06T06:04:50;22.20;91.10
55777;DHT22;54079;44.540;18.784;2023-08-06T06:07:16;22.40;91.30
55777;DHT22;54079;44.540;18.784;2023-08-06T06:09:41;22.60;90.70
55777;DHT22;54079;44.540;18.784;2023-08-06T06:12:08;22.70;90.70
55777;DHT22;54079;44.540;18.784;2023-08-06T06:14:33;22.80;90.70
55777;DHT22;54079;44.540;18.784;2023-08-06T06:17:00;23.00;90.10
55777;DHT22;54079;44.540;18.784;2023-08-06T06:19:26;23.10;90.00
55777;DHT22;54079;44.540;18.784;2023-08-06T06:21:53;23.10;89.30
55777;DHT22;54079;44.540;18.784;2023-08-06T06:24:19;23.30;89.80
55777;DHT22;54079;44.540;18.784;2023-08-06T06:26:45;23.50;89.70
55777;DHT22;54079;44.540;18.784;2023-08-06T06:29:10;23.50;88.60
55777;DHT22;54079;44.540;18.784;2023-08-06T06:31:37;23.60;87.60
55777;DHT22;54079;44.540;18.784;2023-08-06T06:34:02;23.80;87.30
55777;DHT22;54079;44.540;18.784;2023-08-06T06:36:28;24.00;85.70
55777;DHT22;54079;44.540;18.784;2023-08-06T06:38:54;24.20;86.00
55777;DHT22;54079;44.540;18.784;2023-08-06T06:41:20;23.90;84.60
55777;DHT22;54079;44.540;18.784;2023-08-06T06:43:46;23.60;85.70
55777;DHT22;54079;44.540;18.784;2023-08-06T06:46:12;23.90;86.50
55777;DHT22;54079;44.540;18.784;2023-08-06T06:48:38;24.20;86.00
55777;DHT22;54079;44.540;18.784;2023-08-06T06:51:04;24.40;83.50
55777;DHT22;54079;44.540;18.784;2023-08-06T06:53:30;24.70;82.80
55777;DHT22;54079;44.540;18.784;2023-08-06T06:56:05;25.10;80.90
55777;DHT22;54079;44.540;18.784;2023-08-06T06:58:32;25.10;80.80
55777;DHT22;54079;44.540;18.784;2023-08-06T07:00:58;25.30;81.40
55777;DHT22;54079;44.540;18.784;2023-08-06T07:03:24;26.50;80.20
55777;DHT22;54079;44.540;18.784;2023-08-06T07:05:50;28.70;73.80
55777;DHT22;54079;44.540;18.784;2023-08-06T07:08:16;31.40;68.40
55777;DHT22;54079;44.540;18.784;2023-08-06T07:10:42;30.60;69.20
55777;DHT22;54079;44.540;18.784;2023-08-06T07:13:09;31.90;67.20
55777;DHT22;54079;44.540;18.784;2023-08-06T07:15:35;35.10;63.80
55777;DHT22;54079;44.540;18.784;2023-08-06T07:18:01;33.70;61.80
55777;DHT22;54079;44.540;18.784;2023-08-06T07:20:27;31.20;63.40
55777;DHT22;54079;44.540;18.784;2023-08-06T07:22:58;31.20;64.50
55777;DHT22;54079;44.540;18.784;2023-08-06T07:25:23;30.80;64.40
55777;DHT22;54079;44.540;18.784;2023-08-06T07:27:49;30.40;65.70
55777;DHT22;54079;44.540;18.784;2023-08-06T07:30:15;30.40;66.10
55777;DHT22;54079;44.540;18.784;2023-08-06T07:32:41;30.80;64.80
55777;DHT22;54079;44.540;18.784;2023-08-06T07:35:08;30.80;64.40
55777;DHT22;54079;44.540;18.784;2023-08-06T07:37:38;33.60;62.40
55777;DHT22;54079;44.540;18.784;2023-08-06T07:40:05;37.60;57.60
55777;DHT22;54079;44.540;18.784;2023-08-06T07:42:31;37.70;54.70
55777;DHT22;54079;44.540;18.784;2023-08-06T07:44:58;37.40;53.70
55777;DHT22;54079;44.540;18.784;2023-08-06T07:47:25;37.30;54.20
55777;DHT22;54079;44.540;18.784;2023-08-06T07:49:51;36.20;54.60
55777;DHT22;54079;44.540;18.784;2023-08-06T07:52:17;34.30;56.60
55777;DHT22;54079;44.540;18.784;2023-08-06T07:54:42;32.70;58.70
55777;DHT22;54079;44.540;18.784;2023-08-06T07:57:08;31.60;60.20
55777;DHT22;54079;44.540;18.784;2023-08-06T07:59:34;31.70;59.10
55777;DHT22;54079;44.540;18.784;2023-08-06T08:02:00;31.70;60.40
55777;DHT22;54079;44.540;18.784;2023-08-06T08:04:26;31.70;60.30
55777;DHT22;54079;44.540;18.784;2023-08-06T08:06:52;31.70;61.30
55777;DHT22;54079;44.540;18.784;2023-08-06T08:09:18;35.20;58.10
55777;DHT22;54079;44.540;18.784;2023-08-06T08:11:44;36.80;53.70
55777;DHT22;54079;44.540;18.784;2023-08-06T08:14:10;34.70;54.70
55777;DHT22;54079;44.540;18.784;2023-08-06T08:16:36;34.40;56.10
55777;DHT22;54079;44.540;18.784;2023-08-06T08:19:02;34.60;55.60
55777;DHT22;54079;44.540;18.784;2023-08-06T08:21:29;35.10;55.80
55777;DHT22;54079;44.540;18.784;2023-08-06T08:23:55;34.80;55.00
55777;DHT22;54079;44.540;18.784;2023-08-06T08:26:21;34.30;55.20
55777;DHT22;54079;44.540;18.784;2023-08-06T08:28:47;33.40;55.80
55777;DHT22;54079;44.540;18.784;2023-08-06T08:31:13;30.90;58.20
55777;DHT22;54079;44.540;18.784;2023-08-06T08:33:39;31.00;59.90
55777;DHT22;54079;44.540;18.784;2023-08-06T08:36:05;31.00;59.20
55777;DHT22;54079;44.540;18.784;2023-08-06T08:38:31;33.80;57.10
55777;DHT22;54079;44.540;18.784;2023-08-06T08:40:57;34.40;55.90
55777;DHT22;54079;44.540;18.784;2023-08-06T08:43:23;37.50;53.00
55777;DHT22;54079;44.540;18.784;2023-08-06T08:45:53;40.00;50.40
55777;DHT22;54079;44.540;18.784;2023-08-06T08:48:26;41.50;49.00
55777;DHT22;54079;44.540;18.784;2023-08-06T08:50:53;44.80;46.70
55777;DHT22;54079;44.540;18.784;2023-08-06T08:53:21;45.40;44.60
55777;DHT22;54079;44.540;18.784;2023-08-06T08:55:48;39.10;45.80
55777;DHT22;54079;44.540;18.784;2023-08-06T08:58:15;37.70;49.00
55777;DHT22;54079;44.540;18.784;2023-08-06T09:00:45;42.90;46.40
55777;DHT22;54079;44.540;18.784;2023-08-06T09:03:11;43.60;44.50
55777;DHT22;54079;44.540;18.784;2023-08-06T09:05:44;44.30;43.90
55777;DHT22;54079;44.540;18.784;2023-08-06T09:08:14;42.30;44.20
55777;DHT22;54079;44.540;18.784;2023-08-06T09:10:43;39.50;46.70
55777;DHT22;54079;44.540;18.784;2023-08-06T09:13:09;36.80;48.90
55777;DHT22;54079;44.540;18.784;2023-08-06T09:15:38;37.70;48.40
55777;DHT22;54079;44.540;18.784;2023-08-06T09:18:10;39.00;47.80
55777;DHT22;54079;44.540;18.784;2023-08-06T09:20:40;39.20;47.00
55777;DHT22;54079;44.540;18.784;2023-08-06T09:23:10;38.10;48.10
55777;DHT22;54079;44.540;18.784;2023-08-06T09:25:38;35.20;49.50
55777;DHT22;54079;44.540;18.784;2023-08-06T09:28:07;34.60;50.30
55777;DHT22;54079;44.540;18.784;2023-08-06T09:30:37;33.80;52.60
55777;DHT22;54079;44.540;18.784;2023-08-06T09:33:07;34.20;52.50
55777;DHT22;54079;44.540;18.784;2023-08-06T09:35:35;33.00;52.10
55777;DHT22;54079;44.540;18.784;2023-08-06T09:38:09;32.00;53.10
55777;DHT22;54079;44.540;18.784;2023-08-06T09:40:36;31.90;54.50
55777;DHT22;54079;44.540;18.784;2023-08-06T09:43:03;31.80;54.80
55777;DHT22;54079;44.540;18.784;2023-08-06T09:45:31;32.10;53.90
55777;DHT22;54079;44.540;18.784;2023-08-06T09:48:03;31.00;53.90
55777;DHT22;54079;44.540;18.784;2023-08-06T09:50:31;30.80;54.10
55777;DHT22;54079;44.540;18.784;2023-08-06T09:52:58;31.40;55.30
55777;DHT22;54079;44.540;18.784;2023-08-06T09:55:25;32.00;54.70
55777;DHT22;54079;44.540;18.784;2023-08-06T09:57:52;32.30;54.80
55777;DHT22;54079;44.540;18.784;2023-08-06T10:00:19;32.20;53.60
55777;DHT22;54079;44.540;18.784;2023-08-06T10:02:45;31.60;54.50
55777;DHT22;54079;44.540;18.784;2023-08-06T10:05:12;31.20;55.20
55777;DHT22;54079;44.540;18.784;2023-08-06T10:07:39;30.40;56.10
55777;DHT22;54079;44.540;18.784;2023-08-06T10:10:06;30.00;55.90
55777;DHT22;54079;44.540;18.784;2023-08-06T10:12:56;30.10;56.30
55777;DHT22;54079;44.540;18.784;2023-08-06T10:15:31;30.50;56.90
55777;DHT22;54079;44.540;18.784;2023-08-06T10:17:58;31.20;58.10
55777;DHT22;54079;44.540;18.784;2023-08-06T10:20:25;31.40;56.70
55777;DHT22;54079;44.540;18.784;2023-08-06T10:23:06;31.80;56.70
55777;DHT22;54079;44.540;18.784;2023-08-06T10:25:34;31.30;56.00
55777;DHT22;54079;44.540;18.784;2023-08-06T10:28:19;31.20;54.80
55777;DHT22;54079;44.540;18.784;2023-08-06T10:30:47;31.20;55.40
55777;DHT22;54079;44.540;18.784;2023-08-06T10:33:13;29.90;57.50
55777;DHT22;54079;44.540;18.784;2023-08-06T10:35:47;29.00;58.70
55777;DHT22;54079;44.540;18.784;2023-08-06T10:38:20;29.00;59.70
55777;DHT22;54079;44.540;18.784;2023-08-06T10:45:52;28.70;60.10
55777;DHT22;54079;44.540;18.784;2023-08-06T10:48:49;29.20;58.90
55777;DHT22;54079;44.540;18.784;2023-08-06T10:51:15;28.60;58.40
55777;DHT22;54079;44.540;18.784;2023-08-06T10:53:48;28.30;59.50
55777;DHT22;54079;44.540;18.784;2023-08-06T10:56:16;28.60;59.30
55777;DHT22;54079;44.540;18.784;2023-08-06T10:58:43;29.40;59.00
55777;DHT22;54079;44.540;18.784;2023-08-06T11:01:10;29.70;58.00
55777;DHT22;54079;44.540;18.784;2023-08-06T11:03:37;30.30;57.20
55777;DHT22;54079;44.540;18.784;2023-08-06T11:06:03;30.70;56.20
55777;DHT22;54079;44.540;18.784;2023-08-06T11:08:40;31.00;57.60
55777;DHT22;54079;44.540;18.784;2023-08-06T11:11:14;30.90;54.60
55777;DHT22;54079;44.540;18.784;2023-08-06T11:13:41;31.00;54.70
55777;DHT22;54079;44.540;18.784;2023-08-06T11:16:08;30.60;55.40
55777;DHT22;54079;44.540;18.784;2023-08-06T11:18:34;30.40;55.70
55777;DHT22;54079;44.540;18.784;2023-08-06T11:21:01;30.40;56.00
55777;DHT22;54079;44.540;18.784;2023-08-06T11:23:30;30.40;56.40
55777;DHT22;54079;44.540;18.784;2023-08-06T11:25:57;30.20;56.60
55777;DHT22;54079;44.540;18.784;2023-08-06T11:28:23;29.60;57.40
55777;DHT22;54079;44.540;18.784;2023-08-06T11:30:50;29.10;59.10
55777;DHT22;54079;44.540;18.784;2023-08-06T11:33:23;28.70;60.20
55777;DHT22;54079;44.540;18.784;2023-08-06T11:35:51;27.50;62.50
55777;DHT22;54079;44.540;18.784;2023-08-06T11:38:17;26.40;65.80
55777;DHT22;54079;44.540;18.784;2023-08-06T11:40:50;25.70;67.00
55777;DHT22;54079;44.540;18.784;2023-08-06T11:43:19;25.40;69.40
55777;DHT22;54079;44.540;18.784;2023-08-06T11:45:45;25.00;69.30
55777;DHT22;54079;44.540;18.784;2023-08-06T11:48:11;24.80;70.00
55777;DHT22;54079;44.540;18.784;2023-08-06T11:50:38;24.70;72.10
55777;DHT22;54079;44.540;18.784;2023-08-06T11:53:04;24.70;70.30
55777;DHT22;54079;44.540;18.784;2023-08-06T11:55:31;24.30;70.90
55777;DHT22;54079;44.540;18.784;2023-08-06T11:57:57;24.20;70.60
55777;DHT22;54079;44.540;18.784;2023-08-06T12:00:27;24.40;70.70
55777;DHT22;54079;44.540;18.784;2023-08-06T12:02:54;24.50;70.10
55777;DHT22;54079;44.540;18.784;2023-08-06T12:05:21;24.20;72.00
55777;DHT22;54079;44.540;18.784;2023-08-06T12:07:52;24.20;70.70
55777;DHT22;54079;44.540;18.784;2023-08-06T12:10:19;24.30;73.20
55777;DHT22;54079;44.540;18.784;2023-08-06T12:12:45;24.40;73.60
55777;DHT22;54079;44.540;18.784;2023-08-06T12:15:12;24.30;74.30
55777;DHT22;54079;44.540;18.784;2023-08-06T12:17:38;24.30;74.60
55777;DHT22;54079;44.540;18.784;2023-08-06T12:20:05;24.10;77.10
55777;DHT22;54079;44.540;18.784;2023-08-06T12:22:32;23.40;75.00
55777;DHT22;54079;44.540;18.784;2023-08-06T12:25:01;22.50;77.10
55777;DHT22;54079;44.540;18.784;2023-08-06T12:27:29;22.00;77.80
55777;DHT22;54079;44.540;18.784;2023-08-06T12:29:55;21.60;79.90
55777;DHT22;54079;44.540;18.784;2023-08-06T12:32:21;22.20;80.00
55777;DHT22;54079;44.540;18.784;2023-08-06T12:34:47;22.60;79.00
55777;DHT22;54079;44.540;18.784;2023-08-06T12:37:13;23.00;78.90
55777;DHT22;54079;44.540;18.784;2023-08-06T12:39:39;22.60;78.20
55777;DHT22;54079;44.540;18.784;2023-08-06T12:42:06;22.80;78.40
55777;DHT22;54079;44.540;18.784;2023-08-06T12:44:32;22.60;78.70
55777;DHT22;54079;44.540;18.784;2023-08-06T12:46:58;22.90;78.60
55777;DHT22;54079;44.540;18.784;2023-08-06T12:49:25;23.00;78.60
55777;DHT22;54079;44.540;18.784;2023-08-06T12:51:52;23.00;78.60
55777;DHT22;54079;44.540;18.784;2023-08-06T12:54:19;23.10;79.40
55777;DHT22;54079;44.540;18.784;2023-08-06T12:56:46;23.30;79.10
55777;DHT22;54079;44.540;18.784;2023-08-06T12:59:14;23.60;78.80
55777;DHT22;54079;44.540;18.784;2023-08-06T13:01:40;23.90;78.60
55777;DHT22;54079;44.540;18.784;2023-08-06T13:04:06;24.00;78.70
55777;DHT22;54079;44.540;18.784;2023-08-06T13:06:32;24.40;78.40
55777;DHT22;54079;44.540;18.784;2023-08-06T13:09:12;24.80;77.70
55777;DHT22;54079;44.540;18.784;2023-08-06T13:11:39;25.00;77.10
55777;DHT22;54079;44.540;18.784;2023-08-06T13:14:07;24.80;76.90
55777;DHT22;54079;44.540;18.784;2023-08-06T13:16:34;24.60;77.00
55777;DHT22;54079;44.540;18.784;2023-08-06T13:19:01;24.60;77.30
55777;DHT22;54079;44.540;18.784;2023-08-06T13:24:12;24.50;77.10
55777;DHT22;54079;44.540;18.784;2023-08-06T13:26:39;25.20;76.20
55777;DHT22;54079;44.540;18.784;2023-08-06T13:29:05;25.60;75.70
55777;DHT22;54079;44.540;18.784;2023-08-06T13:31:33;26.00;75.30
55777;DHT22;54079;44.540;18.784;2023-08-06T13:33:59;25.70;75.00
55777;DHT22;54079;44.540;18.784;2023-08-06T13:36:26;25.50;74.60
55777;DHT22;54079;44.540;18.784;2023-08-06T13:38:52;25.30;73.90
55777;DHT22;54079;44.540;18.784;2023-08-06T13:41:18;24.90;75.10
55777;DHT22;54079;44.540;18.784;2023-08-06T13:43:44;24.40;76.10
55777;DHT22;54079;44.540;18.784;2023-08-06T13:46:11;23.60;76.50
55777;DHT22;54079;44.540;18.784;2023-08-06T13:48:46;23.30;77.90
55777;DHT22;54079;44.540;18.784;2023-08-06T13:51:13;23.10;79.70
55777;DHT22;54079;44.540;18.784;2023-08-06T13:53:41;22.90;79.30
55777;DHT22;54079;44.540;18.784;2023-08-06T13:56:09;22.50;80.10
55777;DHT22;54079;44.540;18.784;2023-08-06T13:58:37;22.20;79.80
55777;DHT22;54079;44.540;18.784;2023-08-06T14:01:03;22.30;80.40
55777;DHT22;54079;44.540;18.784;2023-08-06T14:03:29;22.30;79.60
55777;DHT22;54079;44.540;18.784;2023-08-06T14:05:55;22.40;79.50
55777;DHT22;54079;44.540;18.784;2023-08-06T14:08:23;22.60;79.20
55777;DHT22;54079;44.540;18.784;2023-08-06T14:10:50;22.60;78.40
55777;DHT22;54079;44.540;18.784;2023-08-06T14:13:16;22.10;79.40
55777;DHT22;54079;44.540;18.784;2023-08-06T14:15:42;21.90;80.60
55777;DHT22;54079;44.540;18.784;2023-08-06T14:18:13;21.90;78.40
55777;DHT22;54079;44.540;18.784;2023-08-06T14:20:39;22.10;78.80
55777;DHT22;54079;44.540;18.784;2023-08-06T14:23:05;21.70;79.50
55777;DHT22;54079;44.540;18.784;2023-08-06T14:25:38;21.40;79.80
55777;DHT22;54079;44.540;18.784;2023-08-06T14:28:05;21.40;79.50
55777;DHT22;54079;44.540;18.784;2023-08-06T14:30:32;21.00;81.20
55777;DHT22;54079;44.540;18.784;2023-08-06T14:32:59;21.40;80.50
55777;DHT22;54079;44.540;18.784;2023-08-06T14:35:26;21.70;79.00
55777;DHT22;54079;44.540;18.784;2023-08-06T14:37:52;21.80;79.40
55777;DHT22;54079;44.540;18.784;2023-08-06T14:40:18;21.70;79.10
55777;DHT22;54079;44.540;18.784;2023-08-06T14:42:44;21.60;78.10
55777;DHT22;54079;44.540;18.784;2023-08-06T14:45:10;22.00;78.20
55777;DHT22;54079;44.540;18.784;2023-08-06T14:47:36;21.90;77.80
55777;DHT22;54079;44.540;18.784;2023-08-06T14:50:02;21.50;79.50
55777;DHT22;54079;44.540;18.784;2023-08-06T14:52:28;21.40;78.60
55777;DHT22;54079;44.540;18.784;2023-08-06T14:54:55;21.50;79.70
55777;DHT22;54079;44.540;18.784;2023-08-06T14:57:21;21.40;78.70
55777;DHT22;54079;44.540;18.784;2023-08-06T14:59:53;21.50;78.70
55777;DHT22;54079;44.540;18.784;2023-08-06T15:02:19;21.60;79.10
55777;DHT22;54079;44.540;18.784;2023-08-06T15:04:44;21.50;78.20
55777;DHT22;54079;44.540;18.784;2023-08-06T15:07:10;21.20;78.80
55777;DHT22;54079;44.540;18.784;2023-08-06T15:09:36;21.20;79.60
55777;DHT22;54079;44.540;18.784;2023-08-06T15:12:02;21.30;79.10
55777;DHT22;54079;44.540;18.784;2023-08-06T15:14:28;21.20;78.80
55777;DHT22;54079;44.540;18.784;2023-08-06T15:16:54;21.40;79.00
55777;DHT22;54079;44.540;18.784;2023-08-06T15:19:23;21.40;78.60
55777;DHT22;54079;44.540;18.784;2023-08-06T15:21:50;21.20;79.80
55777;DHT22;54079;44.540;18.784;2023-08-06T15:24:16;21.20;80.50
55777;DHT22;54079;44.540;18.784;2023-08-06T15:26:42;21.40;80.90